Albion, Rhode Island
Current Conditions -  °F | °C
As of 11:15 AM on Friday 24 Oct 2014 (Local Time) from KSFZ Reporting Station
Overcast Overcast  
Wind Chill: 10°   Ceiling: 1400
Heat Index: 10°   Visibility: 10mi
Dew Point:   Wind: 9mph
Humidity: 66%   Direction: 320°NW
Pressure: 29.71"   Gusts: NA
Location:  41.95°N, 71.45°W
Report Text: KSFZ 241515Z 32008KT 10SM OVC014 10/04 A2971 RMK AO1
Loading
Personal Weather Stations






























Interactive Weather Map New forecast layout! Learn more

10-Day Weather Forecast

Advertisements
Track Severe Weather on mobile